createdAt,value
2023-04-27T00:02:49.026Z,98327.84
2023-04-27T00:05:51.022Z,98326.63
2023-04-27T00:08:52.960Z,98326.38
2023-04-27T00:11:55.085Z,98329.03
2023-04-27T00:14:56.912Z,98328.13
2023-04-27T00:17:58.817Z,98328.04
2023-04-27T00:21:00.815Z,98329.22
2023-04-27T00:24:02.531Z,98326.63
2023-04-27T00:27:04.462Z,98324.90
2023-04-27T00:30:07.597Z,98323.08
2023-04-27T00:33:09.287Z,98323.92
2023-04-27T00:36:11.165Z,98321.50
2023-04-27T00:39:13.366Z,98322.27
2023-04-27T00:42:18.898Z,98324.38
2023-04-27T00:45:20.701Z,98328.20
2023-04-27T00:48:22.615Z,98327.19
2023-04-27T00:51:27.567Z,98332.04
2023-04-27T00:54:31.049Z,98331.80
2023-04-27T00:57:33.247Z,98333.05
2023-04-27T01:00:39.606Z,98332.55
2023-04-27T01:03:41.613Z,98333.10
2023-04-27T01:06:43.600Z,98333.61
2023-04-27T01:09:46.052Z,98332.03
2023-04-27T01:12:47.761Z,98333.42
2023-04-27T01:15:49.521Z,98331.62
2023-04-27T01:18:51.487Z,98331.38
2023-04-27T01:21:53.209Z,98333.52
2023-04-27T01:24:54.986Z,98335.29
2023-04-27T01:27:56.680Z,98338.63
2023-04-27T01:30:58.432Z,98339.23
2023-04-27T01:34:00.750Z,98342.06
2023-04-27T01:37:02.478Z,98340.69
2023-04-27T01:40:06.008Z,98342.98
2023-04-27T01:43:07.704Z,98340.73
2023-04-27T01:46:12.589Z,98341.36
2023-04-27T01:49:14.549Z,98339.86
2023-04-27T01:52:16.447Z,98337.79
2023-04-27T01:55:18.391Z,98335.73
2023-04-27T01:58:20.554Z,98339.09
2023-04-27T02:01:23.120Z,98343.30
2023-04-27T02:04:25.299Z,98341.65
2023-04-27T02:07:27.068Z,98342.41
2023-04-27T02:10:28.801Z,98345.85
2023-04-27T02:13:30.607Z,98346.08
2023-04-27T02:16:32.321Z,98341.83
2023-04-27T02:19:34.028Z,98344.70
2023-04-27T02:22:36.350Z,98344.67
2023-04-27T02:25:38.504Z,98346.92
2023-04-27T02:28:40.302Z,98341.88
2023-04-27T02:31:42.638Z,98339.47
2023-04-27T02:34:44.619Z,98340.54
2023-04-27T02:37:46.416Z,98342.84
2023-04-27T02:40:54.426Z,98344.98
2023-04-27T02:43:56.071Z,98348.09
2023-04-27T02:46:59.362Z,98347.11
2023-04-27T02:50:01.460Z,98343.60
2023-04-27T02:53:03.463Z,98343.48
2023-04-27T02:56:05.447Z,98344.28
2023-04-27T02:59:07.464Z,98343.73
2023-04-27T03:02:09.310Z,98345.31
2023-04-27T03:05:11.048Z,98344.94
2023-04-27T03:08:12.776Z,98350.50
2023-04-27T03:11:14.509Z,98354.89
2023-04-27T03:14:16.163Z,98356.64
2023-04-27T03:17:17.766Z,98356.24
2023-04-27T03:20:22.700Z,98361.72
2023-04-27T03:23:24.380Z,98363.60
2023-04-27T03:26:27.141Z,98363.84
2023-04-27T03:29:28.828Z,98365.89
2023-04-27T03:32:30.621Z,98365.04
2023-04-27T03:35:32.338Z,98365.15
2023-04-27T03:38:34.998Z,98369.02
2023-04-27T03:41:36.885Z,98367.92
2023-04-27T03:44:39.056Z,98377.44
2023-04-27T03:47:40.849Z,98378.45
2023-04-27T03:50:43.249Z,98375.46
2023-04-27T03:53:45.389Z,98377.88
2023-04-27T03:56:47.231Z,98383.54
2023-04-27T03:59:49.656Z,98384.03
2023-04-27T04:02:51.693Z,98386.16
2023-04-27T04:05:53.548Z,98383.91
2023-04-27T04:08:55.325Z,98385.09
2023-04-27T04:11:57.455Z,98391.75
2023-04-27T04:14:59.319Z,98391.28
2023-04-27T04:18:01.454Z,98392.62
2023-04-27T04:21:03.371Z,98394.04
2023-04-27T04:24:05.506Z,98400.36
2023-04-27T04:27:07.879Z,98400.14
2023-04-27T04:30:10.865Z,98396.59
2023-04-27T04:33:13.141Z,98401.11
2023-04-27T04:36:15.775Z,98403.17
2023-04-27T04:39:21.316Z,98407.38
2023-04-27T04:42:23.180Z,98406.48
2023-04-27T04:45:25.373Z,98408.66
2023-04-27T04:48:27.395Z,98409.98
2023-04-27T04:51:30.180Z,98414.59
2023-04-27T04:54:31.919Z,98414.64
2023-04-27T04:57:33.593Z,98416.70
2023-04-27T05:00:35.297Z,98418.44
2023-04-27T05:03:37.267Z,98421.92
2023-04-27T05:06:39.177Z,98427.16
2023-04-27T05:09:40.921Z,98426.45
2023-04-27T05:12:43.900Z,98425.84
2023-04-27T05:15:46.032Z,98431.02
2023-04-27T05:18:47.815Z,98432.51
2023-04-27T05:21:49.675Z,98435.80
2023-04-27T05:24:51.345Z,98439.05
2023-04-27T05:27:53.009Z,98437.42
2023-04-27T05:30:54.748Z,98438.91
2023-04-27T05:33:56.386Z,98440.09
2023-04-27T05:36:58.051Z,98442.30
2023-04-27T05:39:59.735Z,98444.61
2023-04-27T05:43:04.656Z,98447.45
2023-04-27T05:46:06.453Z,98447.00
2023-04-27T05:49:08.328Z,98449.15
2023-04-27T05:52:10.141Z,98449.93
2023-04-27T05:55:11.911Z,98455.92
2023-04-27T05:58:13.658Z,98458.37
2023-04-27T06:01:15.531Z,98459.80
2023-04-27T06:04:17.402Z,98461.37
2023-04-27T06:07:19.629Z,98466.23
2023-04-27T06:10:21.424Z,98468.67
2023-04-27T06:13:23.240Z,98470.16
2023-04-27T06:16:25.162Z,98471.11
2023-04-27T06:19:27.406Z,98466.33
2023-04-27T06:22:29.104Z,98469.62
2023-04-27T06:25:30.853Z,98464.52
2023-04-27T06:28:33.293Z,98463.02
2023-04-27T06:31:35.187Z,98465.75
2023-04-27T06:34:36.988Z,98469.11
2023-04-27T06:37:38.814Z,98473.16
2023-04-27T06:40:40.516Z,98473.91
2023-04-27T06:43:42.340Z,98470.35
2023-04-27T06:46:44.062Z,98473.52
2023-04-27T06:49:46.598Z,98474.36
2023-04-27T06:52:49.678Z,98479.89
2023-04-27T06:55:51.456Z,98480.33
2023-04-27T06:58:53.642Z,98475.55
2023-04-27T07:01:55.465Z,98478.95
2023-04-27T07:04:58.242Z,98479.22
2023-04-27T07:08:03.340Z,98480.73
2023-04-27T07:11:07.127Z,98474.23
2023-04-27T07:14:10.262Z,98476.77
2023-04-27T07:17:12.809Z,98476.70
2023-04-27T07:20:18.164Z,98471.27
2023-04-27T07:23:20.036Z,98470.55
2023-04-27T07:26:24.279Z,98467.52
2023-04-27T07:29:27.700Z,98469.93
2023-04-27T07:32:30.330Z,98467.14
2023-04-27T07:35:33.258Z,98470.96
2023-04-27T07:38:35.042Z,98471.22
2023-04-27T07:41:37.162Z,98469.13
2023-04-27T07:44:40.059Z,98470.92
2023-04-27T07:47:41.883Z,98466.73
2023-04-27T07:50:43.786Z,98466.67
2023-04-27T07:53:47.694Z,98471.53
2023-04-27T07:56:49.724Z,98476.30
2023-04-27T07:59:51.663Z,98475.13
2023-04-27T08:02:54.616Z,98473.46
2023-04-27T08:05:56.721Z,98479.52
2023-04-27T08:09:00.260Z,98482.48
2023-04-27T08:12:02.296Z,98483.77
2023-04-27T08:15:07.668Z,98488.25
2023-04-27T08:18:10.364Z,98481.79
2023-04-27T08:21:12.432Z,98479.27
2023-04-27T08:24:14.186Z,98479.52
2023-04-27T08:27:16.388Z,98482.44
2023-04-27T08:30:19.041Z,98483.23
2023-04-27T08:33:20.921Z,98488.84
2023-04-27T08:36:25.816Z,98487.66
2023-04-27T08:39:27.731Z,98484.65
2023-04-27T08:42:30.113Z,98483.31
2023-04-27T08:45:32.394Z,98481.34
2023-04-27T08:48:34.686Z,98481.72
2023-04-27T08:51:36.709Z,98484.22
2023-04-27T08:54:38.405Z,98485.63
2023-04-27T08:57:40.744Z,98486.18
2023-04-27T09:00:45.406Z,98488.60
2023-04-27T09:03:47.368Z,98490.96
2023-04-27T09:06:49.216Z,98488.67
2023-04-27T09:10:02.035Z,98486.30
2023-04-27T09:13:03.765Z,98485.98
2023-04-27T09:16:06.294Z,98484.90
2023-04-27T09:19:08.265Z,98483.95
2023-04-27T09:22:13.057Z,98481.34
2023-04-27T09:25:28.373Z,98479.20
2023-04-27T09:28:31.699Z,98481.69
2023-04-27T09:31:35.364Z,98480.42
2023-04-27T09:34:39.368Z,98483.56
2023-04-27T09:37:41.239Z,98481.21
2023-04-27T09:40:43.231Z,98482.79
2023-04-27T09:43:46.645Z,98484.52
2023-04-27T09:46:48.681Z,98483.59
2023-04-27T09:49:51.500Z,98483.44
2023-04-27T09:52:54.095Z,98479.10
2023-04-27T09:56:01.903Z,98482.13
2023-04-27T09:59:09.524Z,98484.56
2023-04-27T10:02:24.642Z,98486.38
2023-04-27T10:05:43.244Z,98488.30
2023-04-27T10:08:45.268Z,98487.77
2023-04-27T10:11:47.288Z,98489.50
2023-04-27T10:14:49.386Z,98488.57
2023-04-27T10:17:58.226Z,98491.95
2023-04-27T10:21:12.360Z,98493.84
2023-04-27T10:24:14.142Z,98492.52
2023-04-27T10:27:23.485Z,98491.17
2023-04-27T10:30:31.395Z,98486.77
2023-04-27T10:33:43.518Z,98488.10
2023-04-27T10:36:45.634Z,98489.59
2023-04-27T10:39:49.403Z,98492.50
2023-04-27T10:42:51.843Z,98489.27
2023-04-27T10:45:54.834Z,98490.23
2023-04-27T10:48:57.694Z,98494.40
2023-04-27T10:55:23.375Z,98498.24
2023-04-27T10:58:29.862Z,98497.63
2023-04-27T11:01:37.170Z,98495.02
2023-04-27T11:04:40.824Z,98496.77
2023-04-27T11:07:47.321Z,98495.50
2023-04-27T11:10:52.030Z,98496.04
2023-04-27T11:13:55.330Z,98498.24
2023-04-27T11:16:58.193Z,98496.48
2023-04-27T11:20:00.276Z,98503.57
2023-04-27T11:23:02.391Z,98500.33
2023-04-27T11:26:18.804Z,98500.50
2023-04-27T11:29:20.915Z,98497.75
2023-04-27T11:32:24.871Z,98502.48
2023-04-27T11:35:34.004Z,98504.08
2023-04-27T11:38:35.843Z,98507.13
2023-04-27T11:41:38.694Z,98503.10
2023-04-27T11:44:40.752Z,98501.85
2023-04-27T11:47:46.810Z,98503.04
2023-04-27T11:50:49.710Z,98504.61
2023-04-27T11:53:52.164Z,98505.41
2023-04-27T11:57:04.763Z,98510.21
2023-04-27T12:00:10.547Z,98512.09
2023-04-27T12:03:15.355Z,98509.11
2023-04-27T12:09:29.919Z,98510.37
2023-04-27T12:12:32.893Z,98507.22
2023-04-27T12:15:34.633Z,98507.38
2023-04-27T12:18:36.447Z,98505.48
2023-04-27T12:21:39.282Z,98507.61
2023-04-27T12:24:41.005Z,98511.61
2023-04-27T12:27:43.284Z,98513.75
2023-04-27T12:30:45.407Z,98512.41
2023-04-27T12:33:48.630Z,98513.20
2023-04-27T12:36:50.621Z,98509.42
2023-04-27T12:39:52.548Z,98507.14
2023-04-27T12:42:54.634Z,98509.10
2023-04-27T12:45:56.939Z,98510.29
2023-04-27T12:48:58.717Z,98511.39
2023-04-27T12:52:00.700Z,98516.41
2023-04-27T12:55:02.499Z,98518.70
2023-04-27T12:58:04.538Z,98520.73
2023-04-27T13:01:13.914Z,98520.16
2023-04-27T13:04:19.987Z,98515.98
2023-04-27T13:07:22.464Z,98515.98
2023-04-27T13:10:24.589Z,98517.77
2023-04-27T13:13:26.385Z,98512.91
2023-04-27T13:16:28.189Z,98510.47
2023-04-27T13:19:30.598Z,98512.61
2023-04-27T13:22:32.566Z,98515.45
2023-04-27T13:25:34.595Z,98514.29
2023-04-27T13:28:36.379Z,98509.66
2023-04-27T13:31:38.163Z,98507.67
2023-04-27T13:34:40.564Z,98511.69
2023-04-27T13:37:42.348Z,98509.80
2023-04-27T13:40:44.402Z,98516.41
2023-04-27T13:43:46.244Z,98515.54
2023-04-27T13:46:47.962Z,98517.29
2023-04-27T13:49:49.897Z,98516.88
2023-04-27T13:52:51.814Z,98522.80
2023-04-27T13:55:54.803Z,98522.81
2023-04-27T13:58:56.613Z,98522.57
2023-04-27T14:01:58.539Z,98524.93
2023-04-27T14:05:00.390Z,98521.48
2023-04-27T14:08:02.528Z,98518.44
2023-04-27T14:11:05.416Z,98522.14
2023-04-27T14:14:07.630Z,98522.52
2023-04-27T14:17:09.495Z,98519.79
2023-04-27T14:20:19.955Z,98522.20
2023-04-27T14:23:21.815Z,98524.54
2023-04-27T14:26:23.749Z,98530.67
2023-04-27T14:29:26.064Z,98534.15
2023-04-27T14:32:27.758Z,98533.80
2023-04-27T14:35:29.779Z,98533.25
2023-04-27T14:38:33.894Z,98531.46
2023-04-27T14:41:36.992Z,98532.63
2023-04-27T14:44:38.818Z,98532.93
2023-04-27T14:47:40.665Z,98531.48
2023-04-27T14:50:42.564Z,98535.50
2023-04-27T14:53:44.645Z,98535.42
2023-04-27T14:56:47.904Z,98535.66
2023-04-27T14:59:51.647Z,98529.98
2023-04-27T15:02:54.378Z,98531.73
2023-04-27T15:05:56.200Z,98531.42
2023-04-27T15:08:58.004Z,98529.08
2023-04-27T15:12:01.325Z,98530.88
2023-04-27T15:15:03.183Z,98531.11
2023-04-27T15:18:05.044Z,98536.16
2023-04-27T15:21:06.755Z,98539.79
2023-04-27T15:24:10.446Z,98538.77
2023-04-27T15:27:19.122Z,98538.13
2023-04-27T15:30:22.094Z,98539.07
2023-04-27T15:33:36.838Z,98531.52
2023-04-27T15:36:38.615Z,98534.60
2023-04-27T15:39:41.409Z,98535.23
2023-04-27T15:42:43.097Z,98531.77
2023-04-27T15:45:45.053Z,98533.50
2023-04-27T15:48:48.727Z,98533.65
2023-04-27T15:51:50.754Z,98536.58
2023-04-27T15:54:55.532Z,98530.59
2023-04-27T15:57:57.404Z,98536.73
2023-04-27T16:00:59.842Z,98534.29
2023-04-27T16:04:03.413Z,98529.56
2023-04-27T16:07:08.017Z,98529.40
2023-04-27T16:10:11.058Z,98533.73
2023-04-27T16:13:12.884Z,98535.45
2023-04-27T16:16:14.651Z,98538.91
2023-04-27T16:19:18.620Z,98541.58
2023-04-27T16:22:21.505Z,98539.06
2023-04-27T16:25:23.246Z,98537.73
2023-04-27T16:28:24.960Z,98537.17
2023-04-27T16:31:27.386Z,98541.80
2023-04-27T16:34:29.247Z,98544.07
2023-04-27T16:37:32.268Z,98538.46
2023-04-27T16:40:34.054Z,98538.08
2023-04-27T16:43:36.299Z,98540.49
2023-04-27T16:46:38.472Z,98542.30
2023-04-27T16:49:44.204Z,98544.41
2023-04-27T16:52:49.465Z,98545.65
2023-04-27T16:55:51.335Z,98549.58
2023-04-27T16:58:53.539Z,98548.63
2023-04-27T17:01:55.810Z,98554.34
2023-04-27T17:04:58.853Z,98551.10
2023-04-27T17:08:01.233Z,98552.82
2023-04-27T17:11:09.770Z,98555.80
2023-04-27T17:14:13.270Z,98560.83
2023-04-27T17:17:15.203Z,98564.04
2023-04-27T17:20:17.069Z,98563.86
2023-04-27T17:23:19.155Z,98566.61
2023-04-27T17:26:21.399Z,98563.30
2023-04-27T17:29:23.345Z,98565.88
2023-04-27T17:32:28.601Z,98562.33
2023-04-27T17:35:30.783Z,98564.34
2023-04-27T17:38:32.487Z,98563.31
2023-04-27T17:41:36.784Z,98559.65
2023-04-27T17:44:40.537Z,98560.35
2023-04-27T17:47:42.245Z,98562.66
2023-04-27T17:50:43.941Z,98565.93
2023-04-27T17:53:45.617Z,98569.75
2023-04-27T17:56:47.291Z,98578.02
2023-04-27T17:59:49.760Z,98577.16
2023-04-27T18:02:51.575Z,98580.85
2023-04-27T18:05:53.416Z,98579.44
2023-04-27T18:08:55.488Z,98583.98
2023-04-27T18:11:58.137Z,98584.17
2023-04-27T18:15:03.395Z,98589.19
2023-04-27T18:18:06.547Z,98593.10
2023-04-27T18:21:08.309Z,98594.89
2023-04-27T18:24:10.228Z,98593.89
2023-04-27T18:27:12.001Z,98596.54
2023-04-27T18:30:13.805Z,98603.46
2023-04-27T18:33:17.194Z,98601.45
2023-04-27T18:36:19.241Z,98604.13
2023-04-27T18:39:21.448Z,98600.27
2023-04-27T18:42:23.181Z,98606.06
2023-04-27T18:45:24.955Z,98610.08
2023-04-27T18:48:26.674Z,98614.16
2023-04-27T18:51:28.658Z,98616.60
2023-04-27T18:54:30.346Z,98613.23
2023-04-27T18:57:33.041Z,98609.19
2023-04-27T19:00:37.384Z,98613.63
2023-04-27T19:03:39.289Z,98615.00
2023-04-27T19:06:41.460Z,98613.73
2023-04-27T19:09:43.141Z,98613.31
2023-04-27T19:12:44.872Z,98614.40
2023-04-27T19:15:46.593Z,98613.45
2023-04-27T19:18:48.312Z,98613.11
2023-04-27T19:21:50.179Z,98616.21
2023-04-27T19:24:51.852Z,98619.27
2023-04-27T19:27:54.898Z,98618.37
2023-04-27T19:30:56.622Z,98622.65
2023-04-27T19:34:04.128Z,98625.18
2023-04-27T19:37:06.248Z,98628.05
2023-04-27T19:40:08.708Z,98625.41
2023-04-27T19:43:11.319Z,98626.95
2023-04-27T19:46:13.004Z,98622.09
2023-04-27T19:49:15.339Z,98619.70
2023-04-27T19:52:17.274Z,98620.69
2023-04-27T19:55:18.956Z,98618.86
2023-04-27T19:58:20.966Z,98622.58
2023-04-27T20:01:22.816Z,98626.96
2023-04-27T20:04:25.093Z,98627.27
2023-04-27T20:07:27.054Z,98630.55
2023-04-27T20:10:28.761Z,98625.50
2023-04-27T20:13:30.875Z,98626.79
2023-04-27T20:16:32.737Z,98626.11
2023-04-27T20:19:34.401Z,98625.63
2023-04-27T20:22:37.140Z,98622.89
2023-04-27T20:25:38.774Z,98623.19
2023-04-27T20:28:40.529Z,98629.21
2023-04-27T20:31:42.324Z,98630.33
2023-04-27T20:34:44.056Z,98631.51
2023-04-27T20:37:46.522Z,98634.88
2023-04-27T20:40:49.627Z,98630.41
2023-04-27T20:43:51.774Z,98630.13
2023-04-27T20:46:54.600Z,98628.33
2023-04-27T20:49:56.412Z,98628.69
2023-04-27T20:52:58.109Z,98632.65
2023-04-27T20:55:59.775Z,98628.64
2023-04-27T20:59:01.573Z,98625.94
2023-04-27T21:02:03.325Z,98629.89
2023-04-27T21:05:05.237Z,98629.61
2023-04-27T21:08:06.972Z,98640.75
2023-04-27T21:11:09.010Z,98645.11
2023-04-27T21:14:10.803Z,98646.61
2023-04-27T21:17:14.549Z,98641.79
2023-04-27T21:20:16.491Z,98645.86
2023-04-27T21:23:19.144Z,98648.63
2023-04-27T21:26:20.857Z,98643.66
2023-04-27T21:29:22.825Z,98646.69
2023-04-27T21:32:24.556Z,98643.17
2023-04-27T21:35:26.454Z,98645.44
2023-04-27T21:38:28.183Z,98644.08
2023-04-27T21:41:29.817Z,98644.33
2023-04-27T21:44:31.557Z,98641.05
2023-04-27T21:47:33.308Z,98647.27
2023-04-27T21:50:35.186Z,98645.45
2023-04-27T21:53:37.010Z,98646.66
2023-04-27T21:56:38.757Z,98646.52
2023-04-27T21:59:40.622Z,98645.70
2023-04-27T22:02:42.748Z,98640.98
2023-04-27T22:05:44.711Z,98635.14
2023-04-27T22:08:46.617Z,98633.82
2023-04-27T22:11:48.257Z,98642.59
2023-04-27T22:14:49.962Z,98645.12
2023-04-27T22:17:53.139Z,98647.79
2023-04-27T22:20:54.916Z,98643.55
2023-04-27T22:23:56.857Z,98643.81
2023-04-27T22:26:58.607Z,98642.55
2023-04-27T22:30:00.377Z,98648.01
2023-04-27T22:33:02.526Z,98646.23
2023-04-27T22:36:05.231Z,98648.34
2023-04-27T22:39:07.545Z,98646.79
2023-04-27T22:42:09.160Z,98645.63
2023-04-27T22:45:11.315Z,98646.50
2023-04-27T22:48:12.991Z,98650.13
2023-04-27T22:51:14.869Z,98649.27
2023-04-27T22:54:16.733Z,98648.83
2023-04-27T22:57:18.576Z,98643.75
2023-04-27T23:00:20.496Z,98640.61
2023-04-27T23:03:22.433Z,98644.68
2023-04-27T23:06:24.320Z,98645.25
2023-04-27T23:09:26.390Z,98641.05
2023-04-27T23:12:29.583Z,98640.89
2023-04-27T23:15:31.324Z,98638.55
2023-04-27T23:18:33.265Z,98639.82
2023-04-27T23:21:35.012Z,98639.00
2023-04-27T23:24:36.708Z,98644.09
2023-04-27T23:27:38.539Z,98641.98
2023-04-27T23:30:40.364Z,98638.38
2023-04-27T23:33:42.075Z,98638.27
2023-04-27T23:36:44.013Z,98640.63
2023-04-27T23:39:45.833Z,98637.65
2023-04-27T23:42:48.560Z,98633.88
2023-04-27T23:45:52.149Z,98630.73
2023-04-27T23:48:53.906Z,98630.40
2023-04-27T23:51:55.672Z,98629.28
2023-04-27T23:54:57.718Z,98628.48
2023-04-27T23:57:59.400Z,98625.71
